sensor_id;sensor_type;location;lat;lon;timestamp;temperature;humidity
8778;DHT22;4425;50.872;4.712;2023-11-22T00:02:16;6.00;99.90
8778;DHT22;4425;50.872;4.712;2023-11-22T00:04:45;6.00;99.90
8778;DHT22;4425;50.872;4.712;2023-11-22T00:07:12;5.90;99.90
8778;DHT22;4425;50.872;4.712;2023-11-22T00:09:39;5.90;99.90
8778;DHT22;4425;50.872;4.712;2023-11-22T00:12:07;5.90;99.90
8778;DHT22;4425;50.872;4.712;2023-11-22T00:14:35;5.80;99.90
8778;DHT22;4425;50.872;4.712;2023-11-22T00:17:02;6.00;99.90
8778;DHT22;4425;50.872;4.712;2023-11-22T00:19:29;6.00;99.90
8778;DHT22;4425;50.872;4.712;2023-11-22T00:21:59;6.00;99.90
8778;DHT22;4425;50.872;4.712;2023-11-22T00:24:28;6.00;99.90
8778;DHT22;4425;50.872;4.712;2023-11-22T00:26:55;6.00;99.90
8778;DHT22;4425;50.872;4.712;2023-11-22T00:29:22;6.00;99.90
8778;DHT22;4425;50.872;4.712;2023-11-22T01:56:26;6.00;99.90
8778;DHT22;4425;50.872;4.712;2023-11-22T01:58:54;6.00;99.90
8778;DHT22;4425;50.872;4.712;2023-11-22T02:01:22;5.90;99.90
8778;DHT22;4425;50.872;4.712;2023-11-22T02:03:49;5.90;99.90
8778;DHT22;4425;50.872;4.712;2023-11-22T02:06:18;5.80;99.90
8778;DHT22;4425;50.872;4.712;2023-11-22T02:08:45;5.80;99.90
8778;DHT22;4425;50.872;4.712;2023-11-22T02:11:18;5.80;99.90
8778;DHT22;4425;50.872;4.712;2023-11-22T02:13:47;5.80;99.90
8778;DHT22;4425;50.872;4.712;2023-11-22T02:16:17;5.90;99.90
8778;DHT22;4425;50.872;4.712;2023-11-22T02:18:45;5.90;99.90
8778;DHT22;4425;50.872;4.712;2023-11-22T02:21:12;5.90;99.90
8778;DHT22;4425;50.872;4.712;2023-11-22T02:23:42;5.90;99.90
8778;DHT22;4425;50.872;4.712;2023-11-22T02:26:08;5.90;99.90
8778;DHT22;4425;50.872;4.712;2023-11-22T02:28:35;6.00;99.90
8778;DHT22;4425;50.872;4.712;2023-11-22T02:31:03;5.90;99.90
8778;DHT22;4425;50.872;4.712;2023-11-22T02:33:30;5.90;99.90
8778;DHT22;4425;50.872;4.712;2023-11-22T02:35:57;5.90;99.90
8778;DHT22;4425;50.872;4.712;2023-11-22T02:38:24;5.90;99.90
8778;DHT22;4425;50.872;4.712;2023-11-22T02:40:54;5.90;99.90
8778;DHT22;4425;50.872;4.712;2023-11-22T02:43:21;5.80;99.90
8778;DHT22;4425;50.872;4.712;2023-11-22T02:45:48;5.90;99.90
8778;DHT22;4425;50.872;4.712;2023-11-22T02:48:17;6.00;99.90
8778;DHT22;4425;50.872;4.712;2023-11-22T02:50:44;6.00;99.90
8778;DHT22;4425;50.872;4.712;2023-11-22T02:53:13;5.90;99.90
8778;DHT22;4425;50.872;4.712;2023-11-22T02:55:40;5.80;99.90
8778;DHT22;4425;50.872;4.712;2023-11-22T02:58:14;5.90;99.90
8778;DHT22;4425;50.872;4.712;2023-11-22T03:00:42;5.90;99.90
8778;DHT22;4425;50.872;4.712;2023-11-22T03:03:09;5.90;99.90
8778;DHT22;4425;50.872;4.712;2023-11-22T03:05:40;6.00;99.90
8778;DHT22;4425;50.872;4.712;2023-11-22T03:08:07;6.10;99.90
8778;DHT22;4425;50.872;4.712;2023-11-22T03:10:35;6.10;99.90
8778;DHT22;4425;50.872;4.712;2023-11-22T03:13:02;6.20;99.90
8778;DHT22;4425;50.872;4.712;2023-11-22T03:15:32;6.10;99.90
8778;DHT22;4425;50.872;4.712;2023-11-22T03:17:59;6.10;99.90
8778;DHT22;4425;50.872;4.712;2023-11-22T03:20:27;6.10;99.90
8778;DHT22;4425;50.872;4.712;2023-11-22T03:22:53;6.10;99.90
8778;DHT22;4425;50.872;4.712;2023-11-22T03:25:21;6.00;99.90
8778;DHT22;4425;50.872;4.712;2023-11-22T03:27:48;6.10;99.90
8778;DHT22;4425;50.872;4.712;2023-11-22T03:30:15;6.00;99.90
8778;DHT22;4425;50.872;4.712;2023-11-22T03:32:44;5.90;99.90
8778;DHT22;4425;50.872;4.712;2023-11-22T03:35:11;5.80;99.90
8778;DHT22;4425;50.872;4.712;2023-11-22T03:37:38;5.70;99.90
8778;DHT22;4425;50.872;4.712;2023-11-22T03:40:06;5.70;99.90
8778;DHT22;4425;50.872;4.712;2023-11-22T03:42:36;5.60;99.90
8778;DHT22;4425;50.872;4.712;2023-11-22T03:45:03;5.60;99.90
8778;DHT22;4425;50.872;4.712;2023-11-22T03:47:30;5.60;99.90
8778;DHT22;4425;50.872;4.712;2023-11-22T03:50:00;5.60;99.90
8778;DHT22;4425;50.872;4.712;2023-11-22T03:52:27;5.50;99.90
8778;DHT22;4425;50.872;4.712;2023-11-22T03:54:54;5.50;99.90
8778;DHT22;4425;50.872;4.712;2023-11-22T03:57:22;5.50;99.90
8778;DHT22;4425;50.872;4.712;2023-11-22T03:59:49;5.40;99.90
8778;DHT22;4425;50.872;4.712;2023-11-22T04:02:16;5.40;99.90
8778;DHT22;4425;50.872;4.712;2023-11-22T04:04:43;5.40;99.90
8778;DHT22;4425;50.872;4.712;2023-11-22T04:07:12;5.40;99.90
8778;DHT22;4425;50.872;4.712;2023-11-22T04:09:39;5.40;99.90
8778;DHT22;4425;50.872;4.712;2023-11-22T04:12:06;5.40;99.90
8778;DHT22;4425;50.872;4.712;2023-11-22T04:14:33;5.40;99.90
8778;DHT22;4425;50.872;4.712;2023-11-22T04:17:00;5.50;99.90
8778;DHT22;4425;50.872;4.712;2023-11-22T04:19:30;5.40;99.90
8778;DHT22;4425;50.872;4.712;2023-11-22T04:21:56;5.50;99.90
8778;DHT22;4425;50.872;4.712;2023-11-22T04:24:26;5.50;99.90
8778;DHT22;4425;50.872;4.712;2023-11-22T04:26:54;5.50;99.90
8778;DHT22;4425;50.872;4.712;2023-11-22T04:29:21;5.60;99.90
8778;DHT22;4425;50.872;4.712;2023-11-22T04:31:48;5.60;99.90
8778;DHT22;4425;50.872;4.712;2023-11-22T04:34:15;5.70;99.90
8778;DHT22;4425;50.872;4.712;2023-11-22T04:36:42;5.70;99.90
8778;DHT22;4425;50.872;4.712;2023-11-22T04:39:12;5.60;99.90
8778;DHT22;4425;50.872;4.712;2023-11-22T04:41:41;5.60;99.90
8778;DHT22;4425;50.872;4.712;2023-11-22T04:44:08;5.60;99.90
8778;DHT22;4425;50.872;4.712;2023-11-22T04:46:35;5.60;99.90
8778;DHT22;4425;50.872;4.712;2023-11-22T04:49:02;5.50;99.90
8778;DHT22;4425;50.872;4.712;2023-11-22T04:51:29;5.40;99.90
8778;DHT22;4425;50.872;4.712;2023-11-22T04:53:55;5.50;99.90
8778;DHT22;4425;50.872;4.712;2023-11-22T04:56:23;5.40;99.90
8778;DHT22;4425;50.872;4.712;2023-11-22T04:58:52;5.40;99.90
8778;DHT22;4425;50.872;4.712;2023-11-22T05:01:20;5.30;99.90
8778;DHT22;4425;50.872;4.712;2023-11-22T05:03:47;5.30;99.90
8778;DHT22;4425;50.872;4.712;2023-11-22T05:06:14;5.30;99.90
8778;DHT22;4425;50.872;4.712;2023-11-22T05:08:43;5.30;99.90
8778;DHT22;4425;50.872;4.712;2023-11-22T05:11:09;5.20;99.90
8778;DHT22;4425;50.872;4.712;2023-11-22T05:13:36;5.30;99.90
8778;DHT22;4425;50.872;4.712;2023-11-22T05:16:05;5.20;99.90
8778;DHT22;4425;50.872;4.712;2023-11-22T05:18:33;5.20;99.90
8778;DHT22;4425;50.872;4.712;2023-11-22T05:21:09;5.30;99.90
8778;DHT22;4425;50.872;4.712;2023-11-22T05:23:36;5.20;99.90
8778;DHT22;4425;50.872;4.712;2023-11-22T05:26:04;5.20;99.90
8778;DHT22;4425;50.872;4.712;2023-11-22T05:28:31;5.20;99.90
8778;DHT22;4425;50.872;4.712;2023-11-22T05:30:59;5.10;99.90
8778;DHT22;4425;50.872;4.712;2023-11-22T05:33:27;5.10;99.90
8778;DHT22;4425;50.872;4.712;2023-11-22T05:35:54;5.10;99.90
8778;DHT22;4425;50.872;4.712;2023-11-22T05:38:21;5.10;99.90
8778;DHT22;4425;50.872;4.712;2023-11-22T05:40:48;5.10;99.90
8778;DHT22;4425;50.872;4.712;2023-11-22T05:43:15;5.10;99.90
8778;DHT22;4425;50.872;4.712;2023-11-22T05:45:43;5.10;99.90
8778;DHT22;4425;50.872;4.712;2023-11-22T05:48:15;5.10;99.90
8778;DHT22;4425;50.872;4.712;2023-11-22T05:50:43;5.00;99.90
8778;DHT22;4425;50.872;4.712;2023-11-22T05:53:11;5.00;99.90
8778;DHT22;4425;50.872;4.712;2023-11-22T05:55:38;5.00;99.90
8778;DHT22;4425;50.872;4.712;2023-11-22T05:58:05;5.10;99.90
8778;DHT22;4425;50.872;4.712;2023-11-22T06:00:32;5.00;99.90
8778;DHT22;4425;50.872;4.712;2023-11-22T06:02:59;5.00;99.90
8778;DHT22;4425;50.872;4.712;2023-11-22T06:05:27;5.00;99.90
8778;DHT22;4425;50.872;4.712;2023-11-22T06:07:58;5.00;99.90
8778;DHT22;4425;50.872;4.712;2023-11-22T06:10:27;5.10;99.90
8778;DHT22;4425;50.872;4.712;2023-11-22T06:12:54;5.10;99.90
8778;DHT22;4425;50.872;4.712;2023-11-22T06:15:22;5.10;99.90
8778;DHT22;4425;50.872;4.712;2023-11-22T06:17:49;5.20;99.90
8778;DHT22;4425;50.872;4.712;2023-11-22T06:20:19;5.20;99.90
8778;DHT22;4425;50.872;4.712;2023-11-22T06:22:47;5.30;99.90
8778;DHT22;4425;50.872;4.712;2023-11-22T06:25:16;5.30;99.90
8778;DHT22;4425;50.872;4.712;2023-11-22T06:27:44;5.30;99.90
8778;DHT22;4425;50.872;4.712;2023-11-22T06:30:14;5.30;99.90
8778;DHT22;4425;50.872;4.712;2023-11-22T06:32:44;5.30;99.90
8778;DHT22;4425;50.872;4.712;2023-11-22T06:35:11;5.40;99.90
8778;DHT22;4425;50.872;4.712;2023-11-22T06:37:48;5.40;99.90
8778;DHT22;4425;50.872;4.712;2023-11-22T06:40:20;5.40;99.90
8778;DHT22;4425;50.872;4.712;2023-11-22T06:42:48;5.50;99.90
8778;DHT22;4425;50.872;4.712;2023-11-22T06:45:18;5.50;99.90
8778;DHT22;4425;50.872;4.712;2023-11-22T06:47:48;5.50;99.90
8778;DHT22;4425;50.872;4.712;2023-11-22T06:50:18;5.40;99.90
8778;DHT22;4425;50.872;4.712;2023-11-22T06:52:46;5.50;99.90
8778;DHT22;4425;50.872;4.712;2023-11-22T06:55:22;5.40;99.90
8778;DHT22;4425;50.872;4.712;2023-11-22T06:57:49;5.40;99.90
8778;DHT22;4425;50.872;4.712;2023-11-22T07:00:20;5.40;99.90
8778;DHT22;4425;50.872;4.712;2023-11-22T07:02:48;5.40;99.90
8778;DHT22;4425;50.872;4.712;2023-11-22T07:05:17;5.50;99.90
8778;DHT22;4425;50.872;4.712;2023-11-22T07:07:48;5.50;99.90
8778;DHT22;4425;50.872;4.712;2023-11-22T07:10:16;5.60;99.90
8778;DHT22;4425;50.872;4.712;2023-11-22T07:12:48;5.50;99.90
8778;DHT22;4425;50.872;4.712;2023-11-22T07:15:15;5.50;99.90
8778;DHT22;4425;50.872;4.712;2023-11-22T07:17:42;5.40;99.90
8778;DHT22;4425;50.872;4.712;2023-11-22T07:20:09;5.50;99.90
8778;DHT22;4425;50.872;4.712;2023-11-22T07:22:41;5.60;99.90
8778;DHT22;4425;50.872;4.712;2023-11-22T07:25:09;5.60;99.90
8778;DHT22;4425;50.872;4.712;2023-11-22T07:27:44;5.60;99.90
8778;DHT22;4425;50.872;4.712;2023-11-22T07:30:14;5.60;99.90
8778;DHT22;4425;50.872;4.712;2023-11-22T07:32:42;5.60;99.90
8778;DHT22;4425;50.872;4.712;2023-11-22T07:35:09;5.60;99.90
8778;DHT22;4425;50.872;4.712;2023-11-22T07:37:37;5.70;99.90
8778;DHT22;4425;50.872;4.712;2023-11-22T07:40:07;5.70;99.90
8778;DHT22;4425;50.872;4.712;2023-11-22T07:42:35;5.80;99.90
8778;DHT22;4425;50.872;4.712;2023-11-22T07:45:02;5.80;99.90
8778;DHT22;4425;50.872;4.712;2023-11-22T07:47:31;5.90;99.90
8778;DHT22;4425;50.872;4.712;2023-11-22T07:49:58;5.90;99.90
8778;DHT22;4425;50.872;4.712;2023-11-22T07:52:27;5.90;99.90
8778;DHT22;4425;50.872;4.712;2023-11-22T07:54:55;5.90;99.90
8778;DHT22;4425;50.872;4.712;2023-11-22T07:57:23;6.10;99.90
8778;DHT22;4425;50.872;4.712;2023-11-22T07:59:50;6.00;99.90
8778;DHT22;4425;50.872;4.712;2023-11-22T08:02:20;6.00;99.90
8778;DHT22;4425;50.872;4.712;2023-11-22T08:04:48;6.10;99.90
8778;DHT22;4425;50.872;4.712;2023-11-22T08:07:16;6.20;99.90
8778;DHT22;4425;50.872;4.712;2023-11-22T08:09:43;6.20;99.90
8778;DHT22;4425;50.872;4.712;2023-11-22T08:12:10;6.20;99.90
8778;DHT22;4425;50.872;4.712;2023-11-22T08:14:38;6.10;99.90
8778;DHT22;4425;50.872;4.712;2023-11-22T08:17:06;6.20;99.90
8778;DHT22;4425;50.872;4.712;2023-11-22T08:19:33;6.30;99.90
8778;DHT22;4425;50.872;4.712;2023-11-22T08:22:01;6.30;99.90
8778;DHT22;4425;50.872;4.712;2023-11-22T08:24:29;6.10;99.90
8778;DHT22;4425;50.872;4.712;2023-11-22T08:26:56;6.00;99.90
8778;DHT22;4425;50.872;4.712;2023-11-22T08:29:24;6.00;99.90
8778;DHT22;4425;50.872;4.712;2023-11-22T08:31:51;5.90;99.90
8778;DHT22;4425;50.872;4.712;2023-11-22T08:34:18;5.80;99.90
8778;DHT22;4425;50.872;4.712;2023-11-22T08:36:45;5.80;99.90
8778;DHT22;4425;50.872;4.712;2023-11-22T08:39:14;5.70;99.90
8778;DHT22;4425;50.872;4.712;2023-11-22T08:41:41;5.90;99.90
8778;DHT22;4425;50.872;4.712;2023-11-22T08:44:08;5.80;99.90
8778;DHT22;4425;50.872;4.712;2023-11-22T08:46:35;6.00;99.90
8778;DHT22;4425;50.872;4.712;2023-11-22T08:49:02;6.00;99.90
8778;DHT22;4425;50.872;4.712;2023-11-22T08:51:30;6.00;99.90
8778;DHT22;4425;50.872;4.712;2023-11-22T08:53:57;6.10;99.90
8778;DHT22;4425;50.872;4.712;2023-11-22T08:56:25;6.30;99.90
8778;DHT22;4425;50.872;4.712;2023-11-22T08:58:52;6.50;99.90
8778;DHT22;4425;50.872;4.712;2023-11-22T09:01:20;6.60;99.90
8778;DHT22;4425;50.872;4.712;2023-11-22T09:03:47;6.80;99.90
8778;DHT22;4425;50.872;4.712;2023-11-22T09:06:15;6.90;99.90
8778;DHT22;4425;50.872;4.712;2023-11-22T09:08:42;6.90;99.90
8778;DHT22;4425;50.872;4.712;2023-11-22T09:11:12;6.90;99.90
8778;DHT22;4425;50.872;4.712;2023-11-22T09:13:43;6.80;99.90
8778;DHT22;4425;50.872;4.712;2023-11-22T09:16:10;6.60;99.90
8778;DHT22;4425;50.872;4.712;2023-11-22T09:18:38;6.70;99.90
8778;DHT22;4425;50.872;4.712;2023-11-22T09:21:09;6.70;99.90
8778;DHT22;4425;50.872;4.712;2023-11-22T09:23:36;6.80;99.90
8778;DHT22;4425;50.872;4.712;2023-11-22T09:26:03;6.80;99.90
8778;DHT22;4425;50.872;4.712;2023-11-22T09:28:31;6.80;99.90
8778;DHT22;4425;50.872;4.712;2023-11-22T09:30:59;6.80;99.90
8778;DHT22;4425;50.872;4.712;2023-11-22T09:33:31;7.00;99.90
8778;DHT22;4425;50.872;4.712;2023-11-22T09:35:58;7.00;99.90
8778;DHT22;4425;50.872;4.712;2023-11-22T09:38:25;7.10;99.90
8778;DHT22;4425;50.872;4.712;2023-11-22T09:40:52;7.00;99.90
8778;DHT22;4425;50.872;4.712;2023-11-22T09:43:20;7.10;99.90
8778;DHT22;4425;50.872;4.712;2023-11-22T09:45:49;7.00;99.90
8778;DHT22;4425;50.872;4.712;2023-11-22T09:48:20;7.00;99.90
8778;DHT22;4425;50.872;4.712;2023-11-22T09:50:53;6.90;99.90
8778;DHT22;4425;50.872;4.712;2023-11-22T09:53:31;7.00;99.90
8778;DHT22;4425;50.872;4.712;2023-11-22T09:55:59;7.10;99.90
8778;DHT22;4425;50.872;4.712;2023-11-22T09:58:30;7.20;99.90
8778;DHT22;4425;50.872;4.712;2023-11-22T10:00:57;7.20;99.90
8778;DHT22;4425;50.872;4.712;2023-11-22T10:03:26;7.20;99.90
8778;DHT22;4425;50.872;4.712;2023-11-22T10:05:54;7.10;99.90
8778;DHT22;4425;50.872;4.712;2023-11-22T10:08:23;7.10;99.90
8778;DHT22;4425;50.872;4.712;2023-11-22T10:10:50;7.00;99.90
8778;DHT22;4425;50.872;4.712;2023-11-22T10:13:20;7.00;99.90
8778;DHT22;4425;50.872;4.712;2023-11-22T10:15:47;7.10;99.90
8778;DHT22;4425;50.872;4.712;2023-11-22T10:18:15;7.20;99.90
8778;DHT22;4425;50.872;4.712;2023-11-22T10:20:46;7.30;99.90
8778;DHT22;4425;50.872;4.712;2023-11-22T10:23:15;7.20;99.90
8778;DHT22;4425;50.872;4.712;2023-11-22T10:25:44;7.20;99.90
8778;DHT22;4425;50.872;4.712;2023-11-22T10:28:13;7.30;99.90
8778;DHT22;4425;50.872;4.712;2023-11-22T10:30:40;7.40;99.90
8778;DHT22;4425;50.872;4.712;2023-11-22T10:33:09;7.50;99.90
8778;DHT22;4425;50.872;4.712;2023-11-22T10:35:39;7.60;99.90
8778;DHT22;4425;50.872;4.712;2023-11-22T10:38:10;8.30;99.90
8778;DHT22;4425;50.872;4.712;2023-11-22T10:40:37;8.20;99.90
8778;DHT22;4425;50.872;4.712;2023-11-22T10:43:05;8.10;99.90
8778;DHT22;4425;50.872;4.712;2023-11-22T10:45:34;7.80;99.90
8778;DHT22;4425;50.872;4.712;2023-11-22T10:48:03;7.90;99.90
8778;DHT22;4425;50.872;4.712;2023-11-22T10:50:30;8.00;99.90
8778;DHT22;4425;50.872;4.712;2023-11-22T10:52:58;8.00;99.90
8778;DHT22;4425;50.872;4.712;2023-11-22T10:55:31;7.80;99.90
8778;DHT22;4425;50.872;4.712;2023-11-22T10:58:02;7.70;99.90
8778;DHT22;4425;50.872;4.712;2023-11-22T11:00:31;7.70;99.90
8778;DHT22;4425;50.872;4.712;2023-11-22T11:03:00;7.70;99.90
8778;DHT22;4425;50.872;4.712;2023-11-22T11:05:31;7.70;99.90
8778;DHT22;4425;50.872;4.712;2023-11-22T11:08:01;7.60;99.90
8778;DHT22;4425;50.872;4.712;2023-11-22T11:10:33;7.60;99.90
8778;DHT22;4425;50.872;4.712;2023-11-22T11:13:01;7.50;99.90
8778;DHT22;4425;50.872;4.712;2023-11-22T11:15:28;7.40;99.90
8778;DHT22;4425;50.872;4.712;2023-11-22T11:17:56;7.40;99.90
8778;DHT22;4425;50.872;4.712;2023-11-22T11:20:23;7.40;99.90
8778;DHT22;4425;50.872;4.712;2023-11-22T11:22:52;7.40;99.90
8778;DHT22;4425;50.872;4.712;2023-11-22T11:25:21;7.50;99.90
8778;DHT22;4425;50.872;4.712;2023-11-22T11:27:59;7.60;99.90
8778;DHT22;4425;50.872;4.712;2023-11-22T11:30:43;7.70;99.90
8778;DHT22;4425;50.872;4.712;2023-11-22T11:33:12;7.80;99.90
8778;DHT22;4425;50.872;4.712;2023-11-22T11:35:43;7.80;99.90
8778;DHT22;4425;50.872;4.712;2023-11-22T11:38:12;7.90;99.90
8778;DHT22;4425;50.872;4.712;2023-11-22T11:40:41;7.90;99.90
8778;DHT22;4425;50.872;4.712;2023-11-22T11:43:10;8.00;99.90
8778;DHT22;4425;50.872;4.712;2023-11-22T11:45:39;8.10;99.90
8778;DHT22;4425;50.872;4.712;2023-11-22T11:48:13;8.10;99.90
8778;DHT22;4425;50.872;4.712;2023-11-22T11:50:41;8.20;99.90
8778;DHT22;4425;50.872;4.712;2023-11-22T11:53:08;8.20;99.90
8778;DHT22;4425;50.872;4.712;2023-11-22T11:55:36;8.00;99.90
8778;DHT22;4425;50.872;4.712;2023-11-22T11:58:05;8.10;99.90
8778;DHT22;4425;50.872;4.712;2023-11-22T12:00:36;8.00;99.90
8778;DHT22;4425;50.872;4.712;2023-11-22T12:03:06;7.90;99.90
8778;DHT22;4425;50.872;4.712;2023-11-22T12:05:35;7.90;99.90
8778;DHT22;4425;50.872;4.712;2023-11-22T12:08:02;8.00;99.90
8778;DHT22;4425;50.872;4.712;2023-11-22T12:10:30;8.10;99.90
8778;DHT22;4425;50.872;4.712;2023-11-22T12:12:57;8.20;99.90
8778;DHT22;4425;50.872;4.712;2023-11-22T12:15:26;8.20;99.90
8778;DHT22;4425;50.872;4.712;2023-11-22T12:17:57;8.20;99.90
8778;DHT22;4425;50.872;4.712;2023-11-22T12:20:27;8.20;99.90
8778;DHT22;4425;50.872;4.712;2023-11-22T12:22:58;8.10;99.90
8778;DHT22;4425;50.872;4.712;2023-11-22T12:25:27;8.00;99.90
8778;DHT22;4425;50.872;4.712;2023-11-22T12:27:57;7.90;99.90
8778;DHT22;4425;50.872;4.712;2023-11-22T12:30:28;7.90;99.90
8778;DHT22;4425;50.872;4.712;2023-11-22T12:33:00;7.80;99.90
8778;DHT22;4425;50.872;4.712;2023-11-22T12:35:28;7.80;99.90
8778;DHT22;4425;50.872;4.712;2023-11-22T12:37:58;7.90;99.90
8778;DHT22;4425;50.872;4.712;2023-11-22T12:40:28;8.00;99.90
8778;DHT22;4425;50.872;4.712;2023-11-22T12:42:57;8.10;99.90
8778;DHT22;4425;50.872;4.712;2023-11-22T12:45:42;8.20;99.90
8778;DHT22;4425;50.872;4.712;2023-11-22T12:51:16;8.10;99.90
8778;DHT22;4425;50.872;4.712;2023-11-22T12:53:45;8.20;99.90
8778;DHT22;4425;50.872;4.712;2023-11-22T12:56:14;8.20;99.90
8778;DHT22;4425;50.872;4.712;2023-11-22T12:58:41;8.20;99.90
8778;DHT22;4425;50.872;4.712;2023-11-22T13:01:07;8.20;99.90
8778;DHT22;4425;50.872;4.712;2023-11-22T13:03:35;8.20;99.90
8778;DHT22;4425;50.872;4.712;2023-11-22T13:06:03;8.20;99.90
8778;DHT22;4425;50.872;4.712;2023-11-22T13:08:34;8.10;99.90
8778;DHT22;4425;50.872;4.712;2023-11-22T13:11:02;8.10;99.90
8778;DHT22;4425;50.872;4.712;2023-11-22T13:13:29;8.10;99.90
8778;DHT22;4425;50.872;4.712;2023-11-22T13:15:56;8.10;99.90
8778;DHT22;4425;50.872;4.712;2023-11-22T13:18:23;8.20;99.90
8778;DHT22;4425;50.872;4.712;2023-11-22T13:20:52;8.20;99.90
8778;DHT22;4425;50.872;4.712;2023-11-22T13:23:19;8.10;99.90
8778;DHT22;4425;50.872;4.712;2023-11-22T13:25:47;8.20;99.90
8778;DHT22;4425;50.872;4.712;2023-11-22T13:28:15;8.10;99.90
8778;DHT22;4425;50.872;4.712;2023-11-22T13:30:42;8.00;99.90
8778;DHT22;4425;50.872;4.712;2023-11-22T13:33:09;7.90;99.90
8778;DHT22;4425;50.872;4.712;2023-11-22T13:35:37;7.90;99.90
8778;DHT22;4425;50.872;4.712;2023-11-22T13:38:04;7.90;99.90
8778;DHT22;4425;50.872;4.712;2023-11-22T13:40:36;8.00;99.90
8778;DHT22;4425;50.872;4.712;2023-11-22T13:43:08;8.00;99.90
8778;DHT22;4425;50.872;4.712;2023-11-22T13:45:39;8.10;99.90
8778;DHT22;4425;50.872;4.712;2023-11-22T13:48:08;8.20;99.90
8778;DHT22;4425;50.872;4.712;2023-11-22T13:50:37;8.20;99.90
8778;DHT22;4425;50.872;4.712;2023-11-22T13:53:05;8.30;99.90
8778;DHT22;4425;50.872;4.712;2023-11-22T13:55:38;8.30;99.90
8778;DHT22;4425;50.872;4.712;2023-11-22T13:58:08;8.50;99.90
8778;DHT22;4425;50.872;4.712;2023-11-22T14:00:35;8.60;99.90
8778;DHT22;4425;50.872;4.712;2023-11-22T14:03:05;8.50;99.90
8778;DHT22;4425;50.872;4.712;2023-11-22T14:05:38;8.50;99.90
8778;DHT22;4425;50.872;4.712;2023-11-22T14:08:05;8.50;99.90
8778;DHT22;4425;50.872;4.712;2023-11-22T14:10:33;8.40;99.90
8778;DHT22;4425;50.872;4.712;2023-11-22T14:13:00;8.40;99.90
8778;DHT22;4425;50.872;4.712;2023-11-22T14:15:30;8.30;99.90
8778;DHT22;4425;50.872;4.712;2023-11-22T14:17:57;8.30;99.90
8778;DHT22;4425;50.872;4.712;2023-11-22T14:20:24;8.30;99.90
8778;DHT22;4425;50.872;4.712;2023-11-22T14:22:51;8.40;99.90
8778;DHT22;4425;50.872;4.712;2023-11-22T14:25:22;8.50;99.90
8778;DHT22;4425;50.872;4.712;2023-11-22T14:27:49;8.50;99.90
8778;DHT22;4425;50.872;4.712;2023-11-22T14:30:18;8.50;99.90
8778;DHT22;4425;50.872;4.712;2023-11-22T14:32:48;8.40;99.90
8778;DHT22;4425;50.872;4.712;2023-11-22T14:35:17;8.40;99.90
8778;DHT22;4425;50.872;4.712;2023-11-22T14:37:44;8.30;99.90
8778;DHT22;4425;50.872;4.712;2023-11-22T14:40:11;8.30;99.90
8778;DHT22;4425;50.872;4.712;2023-11-22T14:42:40;8.30;99.90
8778;DHT22;4425;50.872;4.712;2023-11-22T14:45:08;8.30;99.90
8778;DHT22;4425;50.872;4.712;2023-11-22T14:47:37;8.30;99.90
8778;DHT22;4425;50.872;4.712;2023-11-22T14:50:19;8.30;99.90
8778;DHT22;4425;50.872;4.712;2023-11-22T14:52:47;8.20;99.90
8778;DHT22;4425;50.872;4.712;2023-11-22T14:55:16;8.20;99.90
8778;DHT22;4425;50.872;4.712;2023-11-22T14:57:44;8.30;99.90
8778;DHT22;4425;50.872;4.712;2023-11-22T15:00:12;8.50;99.90
8778;DHT22;4425;50.872;4.712;2023-11-22T15:02:40;8.50;99.90
8778;DHT22;4425;50.872;4.712;2023-11-22T15:05:09;8.50;99.90
8778;DHT22;4425;50.872;4.712;2023-11-22T15:07:39;8.40;99.90
8778;DHT22;4425;50.872;4.712;2023-11-22T15:10:08;8.50;99.90
8778;DHT22;4425;50.872;4.712;2023-11-22T15:12:35;8.50;99.90
8778;DHT22;4425;50.872;4.712;2023-11-22T15:15:03;8.50;99.90
8778;DHT22;4425;50.872;4.712;2023-11-22T15:17:30;8.40;99.90
8778;DHT22;4425;50.872;4.712;2023-11-22T15:19:57;8.40;99.90
8778;DHT22;4425;50.872;4.712;2023-11-22T15:22:24;8.30;99.90
8778;DHT22;4425;50.872;4.712;2023-11-22T15:24:53;8.20;99.90
8778;DHT22;4425;50.872;4.712;2023-11-22T15:27:19;8.20;99.90
8778;DHT22;4425;50.872;4.712;2023-11-22T15:29:47;8.50;99.90
8778;DHT22;4425;50.872;4.712;2023-11-22T15:32:14;8.50;99.90
8778;DHT22;4425;50.872;4.712;2023-11-22T15:34:41;8.50;99.90
8778;DHT22;4425;50.872;4.712;2023-11-22T15:37:08;8.40;99.90
8778;DHT22;4425;50.872;4.712;2023-11-22T15:39:37;8.30;99.90
8778;DHT22;4425;50.872;4.712;2023-11-22T15:42:06;8.20;99.90
8778;DHT22;4425;50.872;4.712;2023-11-22T15:44:33;8.20;99.90
8778;DHT22;4425;50.872;4.712;2023-11-22T15:47:00;8.20;99.90
8778;DHT22;4425;50.872;4.712;2023-11-22T15:49:30;8.20;99.90
8778;DHT22;4425;50.872;4.712;2023-11-22T15:51:57;8.10;99.90
8778;DHT22;4425;50.872;4.712;2023-11-22T15:54:24;8.10;99.90
8778;DHT22;4425;50.872;4.712;2023-11-22T15:56:51;8.00;99.90
8778;DHT22;4425;50.872;4.712;2023-11-22T15:59:19;8.00;99.90
8778;DHT22;4425;50.872;4.712;2023-11-22T16:01:46;8.00;99.90
8778;DHT22;4425;50.872;4.712;2023-11-22T16:04:13;8.00;99.90
8778;DHT22;4425;50.872;4.712;2023-11-22T16:06:41;8.20;99.90
8778;DHT22;4425;50.872;4.712;2023-11-22T16:09:08;8.20;99.90
8778;DHT22;4425;50.872;4.712;2023-11-22T16:11:38;8.20;99.90
8778;DHT22;4425;50.872;4.712;2023-11-22T16:14:05;8.10;99.90
8778;DHT22;4425;50.872;4.712;2023-11-22T16:16:34;8.00;99.90
8778;DHT22;4425;50.872;4.712;2023-11-22T16:19:01;8.00;99.90
8778;DHT22;4425;50.872;4.712;2023-11-22T16:21:31;8.00;99.90
8778;DHT22;4425;50.872;4.712;2023-11-22T16:23:58;8.00;99.90
8778;DHT22;4425;50.872;4.712;2023-11-22T16:26:26;8.00;99.90
8778;DHT22;4425;50.872;4.712;2023-11-22T16:28:53;8.00;99.90
8778;DHT22;4425;50.872;4.712;2023-11-22T16:31:20;8.00;99.90
8778;DHT22;4425;50.872;4.712;2023-11-22T16:33:49;8.00;99.90
8778;DHT22;4425;50.872;4.712;2023-11-22T16:36:19;8.00;99.90
8778;DHT22;4425;50.872;4.712;2023-11-22T16:38:48;7.90;99.90
8778;DHT22;4425;50.872;4.712;2023-11-22T16:41:15;7.80;99.90
8778;DHT22;4425;50.872;4.712;2023-11-22T16:43:42;7.70;99.90
8778;DHT22;4425;50.872;4.712;2023-11-22T16:46:09;7.70;99.90
8778;DHT22;4425;50.872;4.712;2023-11-22T16:48:36;7.60;99.90
8778;DHT22;4425;50.872;4.712;2023-11-22T16:51:05;7.60;99.90
8778;DHT22;4425;50.872;4.712;2023-11-22T16:53:32;7.50;99.90
8778;DHT22;4425;50.872;4.712;2023-11-22T16:55:59;7.50;99.90
8778;DHT22;4425;50.872;4.712;2023-11-22T16:58:26;7.50;99.90
8778;DHT22;4425;50.872;4.712;2023-11-22T17:00:53;7.50;99.90
8778;DHT22;4425;50.872;4.712;2023-11-22T17:03:22;7.50;99.90
8778;DHT22;4425;50.872;4.712;2023-11-22T17:05:49;7.40;99.90
8778;DHT22;4425;50.872;4.712;2023-11-22T17:08:18;7.50;99.90
8778;DHT22;4425;50.872;4.712;2023-11-22T17:10:45;7.50;99.90
8778;DHT22;4425;50.872;4.712;2023-11-22T17:13:12;7.50;99.90
8778;DHT22;4425;50.872;4.712;2023-11-22T17:15:39;7.50;99.90
8778;DHT22;4425;50.872;4.712;2023-11-22T17:18:07;7.60;99.90
8778;DHT22;4425;50.872;4.712;2023-11-22T17:20:33;7.70;99.90
8778;DHT22;4425;50.872;4.712;2023-11-22T17:23:00;7.60;99.90
8778;DHT22;4425;50.872;4.712;2023-11-22T17:25:29;7.70;99.90
8778;DHT22;4425;50.872;4.712;2023-11-22T17:27:56;7.70;99.90
8778;DHT22;4425;50.872;4.712;2023-11-22T17:30:23;7.60;99.90
8778;DHT22;4425;50.872;4.712;2023-11-22T17:32:50;7.60;99.90
8778;DHT22;4425;50.872;4.712;2023-11-22T17:35:17;7.50;99.90
8778;DHT22;4425;50.872;4.712;2023-11-22T17:37:44;7.50;99.90
8778;DHT22;4425;50.872;4.712;2023-11-22T17:40:11;7.50;99.90
8778;DHT22;4425;50.872;4.712;2023-11-22T17:42:40;7.50;99.90
8778;DHT22;4425;50.872;4.712;2023-11-22T17:45:07;7.40;99.90
8778;DHT22;4425;50.872;4.712;2023-11-22T17:47:35;7.40;99.90
8778;DHT22;4425;50.872;4.712;2023-11-22T17:50:04;7.40;99.90
8778;DHT22;4425;50.872;4.712;2023-11-22T17:52:30;7.40;99.90